sensor_id;sensor_type;location;lat;lon;timestamp;P1;durP1;ratioP1;P2;durP2;ratioP2
58470;SDS011;44258;51.288;12.068;2022-10-03T00:00:23;10.43;;;3.70;;
58470;SDS011;44258;51.288;12.068;2022-10-03T00:03:06;9.88;;;3.08;;
58470;SDS011;44258;51.288;12.068;2022-10-03T00:05:50;8.40;;;2.90;;
58470;SDS011;44258;51.288;12.068;2022-10-03T00:08:29;9.63;;;2.58;;
58470;SDS011;44258;51.288;12.068;2022-10-03T00:11:16;12.77;;;3.20;;
58470;SDS011;44258;51.288;12.068;2022-10-03T00:13:53;8.02;;;2.70;;
58470;SDS011;44258;51.288;12.068;2022-10-03T00:16:32;14.00;;;3.42;;
58470;SDS011;44258;51.288;12.068;2022-10-03T00:19:12;9.50;;;3.00;;
58470;SDS011;44258;51.288;12.068;2022-10-03T00:21:50;7.05;;;2.75;;
58470;SDS011;44258;51.288;12.068;2022-10-03T00:24:32;10.40;;;2.92;;
58470;SDS011;44258;51.288;12.068;2022-10-03T00:27:10;9.75;;;3.10;;
58470;SDS011;44258;51.288;12.068;2022-10-03T00:29:48;10.48;;;2.85;;
58470;SDS011;44258;51.288;12.068;2022-10-03T00:32:32;11.65;;;2.92;;
58470;SDS011;44258;51.288;12.068;2022-10-03T00:35:14;7.80;;;2.60;;
58470;SDS011;44258;51.288;12.068;2022-10-03T00:37:59;13.00;;;2.97;;
58470;SDS011;44258;51.288;12.068;2022-10-03T00:43:51;8.15;;;2.30;;
58470;SDS011;44258;51.288;12.068;2022-10-03T00:46:50;8.45;;;3.08;;
58470;SDS011;44258;51.288;12.068;2022-10-03T00:55:25;8.40;;;3.10;;
58470;SDS011;44258;51.288;12.068;2022-10-03T00:58:13;9.02;;;2.55;;
58470;SDS011;44258;51.288;12.068;2022-10-03T01:01:18;11.25;;;2.95;;
58470;SDS011;44258;51.288;12.068;2022-10-03T01:03:50;9.65;;;2.55;;
58470;SDS011;44258;51.288;12.068;2022-10-03T01:06:29;11.52;;;2.88;;
58470;SDS011;44258;51.288;12.068;2022-10-03T01:15:08;6.57;;;2.50;;
58470;SDS011;44258;51.288;12.068;2022-10-03T01:17:46;12.27;;;3.53;;
58470;SDS011;44258;51.288;12.068;2022-10-03T01:20:26;8.95;;;2.92;;
58470;SDS011;44258;51.288;12.068;2022-10-03T01:26:30;10.63;;;3.78;;
58470;SDS011;44258;51.288;12.068;2022-10-03T01:29:11;9.35;;;3.28;;
58470;SDS011;44258;51.288;12.068;2022-10-03T01:31:59;9.90;;;3.33;;
58470;SDS011;44258;51.288;12.068;2022-10-03T01:34:34;11.35;;;3.75;;
58470;SDS011;44258;51.288;12.068;2022-10-03T01:37:08;10.88;;;2.95;;
58470;SDS011;44258;51.288;12.068;2022-10-03T01:39:44;11.25;;;3.63;;
58470;SDS011;44258;51.288;12.068;2022-10-03T01:42:17;9.07;;;3.10;;
58470;SDS011;44258;51.288;12.068;2022-10-03T01:45:00;9.55;;;3.17;;
58470;SDS011;44258;51.288;12.068;2022-10-03T01:47:38;12.82;;;3.70;;
58470;SDS011;44258;51.288;12.068;2022-10-03T01:50:17;9.40;;;3.65;;
58470;SDS011;44258;51.288;12.068;2022-10-03T01:52:51;8.52;;;2.75;;
58470;SDS011;44258;51.288;12.068;2022-10-03T01:58:17;11.55;;;3.10;;
58470;SDS011;44258;51.288;12.068;2022-10-03T02:00:55;9.80;;;2.90;;
58470;SDS011;44258;51.288;12.068;2022-10-03T02:03:27;12.32;;;3.00;;
58470;SDS011;44258;51.288;12.068;2022-10-03T02:05:59;11.32;;;3.30;;
58470;SDS011;44258;51.288;12.068;2022-10-03T02:08:41;10.57;;;2.95;;
58470;SDS011;44258;51.288;12.068;2022-10-03T02:11:24;8.20;;;3.15;;
58470;SDS011;44258;51.288;12.068;2022-10-03T02:13:57;10.52;;;2.83;;
58470;SDS011;44258;51.288;12.068;2022-10-03T02:16:35;10.05;;;2.80;;
58470;SDS011;44258;51.288;12.068;2022-10-03T02:19:10;9.73;;;2.40;;
58470;SDS011;44258;51.288;12.068;2022-10-03T02:21:47;6.93;;;2.65;;
58470;SDS011;44258;51.288;12.068;2022-10-03T02:24:23;9.20;;;2.80;;
58470;SDS011;44258;51.288;12.068;2022-10-03T02:30:12;12.15;;;3.20;;
58470;SDS011;44258;51.288;12.068;2022-10-03T02:33:03;11.40;;;2.67;;
58470;SDS011;44258;51.288;12.068;2022-10-03T02:42:29;10.00;;;3.20;;
58470;SDS011;44258;51.288;12.068;2022-10-03T02:45:17;9.68;;;3.00;;
58470;SDS011;44258;51.288;12.068;2022-10-03T02:51:18;8.13;;;2.28;;
58470;SDS011;44258;51.288;12.068;2022-10-03T02:57:14;10.13;;;3.33;;
58470;SDS011;44258;51.288;12.068;2022-10-03T03:00:05;10.77;;;3.25;;
58470;SDS011;44258;51.288;12.068;2022-10-03T03:06:07;10.90;;;3.42;;
58470;SDS011;44258;51.288;12.068;2022-10-03T03:09:08;11.27;;;3.10;;
58470;SDS011;44258;51.288;12.068;2022-10-03T03:12:08;10.98;;;2.75;;
58470;SDS011;44258;51.288;12.068;2022-10-03T03:15:00;9.77;;;2.58;;
58470;SDS011;44258;51.288;12.068;2022-10-03T03:17:47;10.95;;;2.95;;
58470;SDS011;44258;51.288;12.068;2022-10-03T03:20:27;6.40;;;2.38;;
58470;SDS011;44258;51.288;12.068;2022-10-03T03:23:14;9.50;;;2.33;;
58470;SDS011;44258;51.288;12.068;2022-10-03T03:26:08;7.30;;;2.10;;
58470;SDS011;44258;51.288;12.068;2022-10-03T03:28:50;8.10;;;2.10;;
58470;SDS011;44258;51.288;12.068;2022-10-03T03:33:57;5.95;;;1.95;;
58470;SDS011;44258;51.288;12.068;2022-10-03T03:36:34;6.03;;;1.95;;
58470;SDS011;44258;51.288;12.068;2022-10-03T03:39:11;6.88;;;2.00;;
58470;SDS011;44258;51.288;12.068;2022-10-03T03:41:55;8.32;;;1.88;;
58470;SDS011;44258;51.288;12.068;2022-10-03T03:44:56;9.35;;;2.17;;
58470;SDS011;44258;51.288;12.068;2022-10-03T03:47:42;8.65;;;1.90;;
58470;SDS011;44258;51.288;12.068;2022-10-03T03:50:26;9.25;;;2.00;;
58470;SDS011;44258;51.288;12.068;2022-10-03T03:53:08;8.95;;;2.30;;
58470;SDS011;44258;51.288;12.068;2022-10-03T03:55:57;7.57;;;2.33;;
58470;SDS011;44258;51.288;12.068;2022-10-03T03:58:35;11.10;;;2.10;;
58470;SDS011;44258;51.288;12.068;2022-10-03T04:01:08;7.15;;;2.00;;
58470;SDS011;44258;51.288;12.068;2022-10-03T04:03:48;5.43;;;1.80;;
58470;SDS011;44258;51.288;12.068;2022-10-03T04:06:28;8.70;;;2.40;;
58470;SDS011;44258;51.288;12.068;2022-10-03T04:09:13;12.25;;;2.45;;
58470;SDS011;44258;51.288;12.068;2022-10-03T04:11:56;9.63;;;2.78;;
58470;SDS011;44258;51.288;12.068;2022-10-03T04:14:46;10.93;;;2.47;;
58470;SDS011;44258;51.288;12.068;2022-10-03T04:17:27;7.47;;;1.95;;
58470;SDS011;44258;51.288;12.068;2022-10-03T04:20:24;6.57;;;2.53;;
58470;SDS011;44258;51.288;12.068;2022-10-03T04:23:12;13.60;;;2.22;;
58470;SDS011;44258;51.288;12.068;2022-10-03T04:31:48;8.07;;;2.00;;
58470;SDS011;44258;51.288;12.068;2022-10-03T04:37:17;6.82;;;2.20;;
58470;SDS011;44258;51.288;12.068;2022-10-03T04:39:52;8.48;;;2.40;;
58470;SDS011;44258;51.288;12.068;2022-10-03T04:42:37;7.75;;;2.22;;
58470;SDS011;44258;51.288;12.068;2022-10-03T04:45:23;7.50;;;2.47;;
58470;SDS011;44258;51.288;12.068;2022-10-03T04:47:58;7.38;;;1.92;;
58470;SDS011;44258;51.288;12.068;2022-10-03T04:50:38;6.75;;;2.22;;
58470;SDS011;44258;51.288;12.068;2022-10-03T04:53:11;8.40;;;2.30;;
58470;SDS011;44258;51.288;12.068;2022-10-03T04:55:47;8.00;;;2.35;;
58470;SDS011;44258;51.288;12.068;2022-10-03T04:58:23;8.10;;;2.33;;
58470;SDS011;44258;51.288;12.068;2022-10-03T05:00:58;8.52;;;2.40;;
58470;SDS011;44258;51.288;12.068;2022-10-03T05:03:39;9.77;;;2.08;;
58470;SDS011;44258;51.288;12.068;2022-10-03T05:06:27;7.90;;;2.30;;
58470;SDS011;44258;51.288;12.068;2022-10-03T05:09:01;9.65;;;2.67;;
58470;SDS011;44258;51.288;12.068;2022-10-03T05:11:45;8.90;;;2.50;;
58470;SDS011;44258;51.288;12.068;2022-10-03T05:14:23;9.68;;;2.60;;
58470;SDS011;44258;51.288;12.068;2022-10-03T05:17:01;7.20;;;2.72;;
58470;SDS011;44258;51.288;12.068;2022-10-03T05:19:44;8.35;;;2.47;;
58470;SDS011;44258;51.288;12.068;2022-10-03T05:22:24;7.57;;;2.60;;
58470;SDS011;44258;51.288;12.068;2022-10-03T05:25:09;9.68;;;2.90;;
58470;SDS011;44258;51.288;12.068;2022-10-03T05:27:43;12.98;;;3.67;;
58470;SDS011;44258;51.288;12.068;2022-10-03T05:30:18;7.22;;;2.60;;
58470;SDS011;44258;51.288;12.068;2022-10-03T05:32:53;10.18;;;2.90;;
58470;SDS011;44258;51.288;12.068;2022-10-03T05:35:27;7.53;;;3.08;;
58470;SDS011;44258;51.288;12.068;2022-10-03T05:38:11;12.05;;;2.90;;
58470;SDS011;44258;51.288;12.068;2022-10-03T05:40:58;6.47;;;2.42;;
58470;SDS011;44258;51.288;12.068;2022-10-03T05:43:33;8.45;;;2.53;;
58470;SDS011;44258;51.288;12.068;2022-10-03T05:46:12;6.20;;;2.70;;
58470;SDS011;44258;51.288;12.068;2022-10-03T05:48:49;10.20;;;2.88;;
58470;SDS011;44258;51.288;12.068;2022-10-03T05:51:29;10.82;;;2.40;;
58470;SDS011;44258;51.288;12.068;2022-10-03T05:54:25;6.63;;;2.20;;
58470;SDS011;44258;51.288;12.068;2022-10-03T05:57:20;10.73;;;2.85;;
58470;SDS011;44258;51.288;12.068;2022-10-03T06:00:04;10.55;;;2.45;;
58470;SDS011;44258;51.288;12.068;2022-10-03T06:05:30;7.93;;;2.63;;
58470;SDS011;44258;51.288;12.068;2022-10-03T06:08:17;6.78;;;2.40;;
58470;SDS011;44258;51.288;12.068;2022-10-03T06:11:09;10.52;;;2.50;;
58470;SDS011;44258;51.288;12.068;2022-10-03T06:13:53;11.07;;;2.92;;
58470;SDS011;44258;51.288;12.068;2022-10-03T06:16:39;8.40;;;2.95;;
58470;SDS011;44258;51.288;12.068;2022-10-03T06:19:14;8.60;;;2.60;;
58470;SDS011;44258;51.288;12.068;2022-10-03T06:22:06;8.73;;;3.00;;
58470;SDS011;44258;51.288;12.068;2022-10-03T06:31:30;10.48;;;2.70;;
58470;SDS011;44258;51.288;12.068;2022-10-03T06:34:37;8.48;;;2.55;;
58470;SDS011;44258;51.288;12.068;2022-10-03T06:37:39;6.07;;;2.10;;
58470;SDS011;44258;51.288;12.068;2022-10-03T06:52:30;8.85;;;2.40;;
58470;SDS011;44258;51.288;12.068;2022-10-03T06:55:32;5.05;;;2.00;;
58470;SDS011;44258;51.288;12.068;2022-10-03T07:01:23;11.15;;;2.45;;
58470;SDS011;44258;51.288;12.068;2022-10-03T07:07:11;10.55;;;2.92;;
58470;SDS011;44258;51.288;12.068;2022-10-03T07:12:57;6.05;;;2.20;;
58470;SDS011;44258;51.288;12.068;2022-10-03T07:15:49;9.93;;;2.45;;
58470;SDS011;44258;51.288;12.068;2022-10-03T07:18:36;8.73;;;2.22;;
58470;SDS011;44258;51.288;12.068;2022-10-03T07:21:31;6.65;;;2.08;;
58470;SDS011;44258;51.288;12.068;2022-10-03T07:24:18;6.18;;;2.10;;
58470;SDS011;44258;51.288;12.068;2022-10-03T07:27:08;8.77;;;2.55;;
58470;SDS011;44258;51.288;12.068;2022-10-03T07:30:13;8.77;;;2.15;;
58470;SDS011;44258;51.288;12.068;2022-10-03T07:36:13;9.75;;;2.58;;
58470;SDS011;44258;51.288;12.068;2022-10-03T07:39:24;8.63;;;2.30;;
58470;SDS011;44258;51.288;12.068;2022-10-03T07:42:27;7.60;;;2.30;;
58470;SDS011;44258;51.288;12.068;2022-10-03T07:45:10;9.60;;;2.42;;
58470;SDS011;44258;51.288;12.068;2022-10-03T07:53:42;12.23;;;2.80;;
58470;SDS011;44258;51.288;12.068;2022-10-03T07:56:42;10.20;;;2.45;;
58470;SDS011;44258;51.288;12.068;2022-10-03T07:59:26;6.50;;;2.55;;
58470;SDS011;44258;51.288;12.068;2022-10-03T08:02:20;10.77;;;3.30;;
58470;SDS011;44258;51.288;12.068;2022-10-03T08:11:06;7.55;;;2.28;;
58470;SDS011;44258;51.288;12.068;2022-10-03T08:13:51;8.38;;;2.38;;
58470;SDS011;44258;51.288;12.068;2022-10-03T08:16:40;9.05;;;2.17;;
58470;SDS011;44258;51.288;12.068;2022-10-03T08:19:29;8.45;;;1.80;;
58470;SDS011;44258;51.288;12.068;2022-10-03T08:22:13;3.92;;;1.77;;
58470;SDS011;44258;51.288;12.068;2022-10-03T08:25:01;4.05;;;1.80;;
58470;SDS011;44258;51.288;12.068;2022-10-03T08:30:50;5.22;;;1.60;;
58470;SDS011;44258;51.288;12.068;2022-10-03T08:33:59;7.38;;;1.85;;
58470;SDS011;44258;51.288;12.068;2022-10-03T08:36:50;5.93;;;1.85;;
58470;SDS011;44258;51.288;12.068;2022-10-03T08:39:33;7.90;;;2.20;;
58470;SDS011;44258;51.288;12.068;2022-10-03T08:42:27;5.10;;;1.58;;
58470;SDS011;44258;51.288;12.068;2022-10-03T08:48:20;5.53;;;1.60;;
58470;SDS011;44258;51.288;12.068;2022-10-03T08:51:12;7.15;;;1.70;;
58470;SDS011;44258;51.288;12.068;2022-10-03T08:54:11;6.22;;;1.77;;
58470;SDS011;44258;51.288;12.068;2022-10-03T08:56:56;5.05;;;1.70;;
58470;SDS011;44258;51.288;12.068;2022-10-03T09:00:01;7.82;;;1.88;;
58470;SDS011;44258;51.288;12.068;2022-10-03T09:02:46;7.72;;;2.50;;
58470;SDS011;44258;51.288;12.068;2022-10-03T09:14:58;9.13;;;2.00;;
58470;SDS011;44258;51.288;12.068;2022-10-03T09:17:48;6.18;;;1.88;;
58470;SDS011;44258;51.288;12.068;2022-10-03T09:30:13;3.22;;;1.70;;
58470;SDS011;44258;51.288;12.068;2022-10-03T09:32:53;3.97;;;1.50;;
58470;SDS011;44258;51.288;12.068;2022-10-03T09:35:48;5.60;;;2.17;;
58470;SDS011;44258;51.288;12.068;2022-10-03T09:38:42;7.70;;;2.13;;
58470;SDS011;44258;51.288;12.068;2022-10-03T09:44:44;3.17;;;1.60;;
58470;SDS011;44258;51.288;12.068;2022-10-03T09:47:52;6.28;;;2.00;;
58470;SDS011;44258;51.288;12.068;2022-10-03T09:50:48;5.72;;;2.05;;
58470;SDS011;44258;51.288;12.068;2022-10-03T09:53:46;8.25;;;2.15;;
58470;SDS011;44258;51.288;12.068;2022-10-03T09:56:45;2.95;;;1.40;;
58470;SDS011;44258;51.288;12.068;2022-10-03T09:59:31;5.65;;;1.70;;
58470;SDS011;44258;51.288;12.068;2022-10-03T10:02:25;5.45;;;1.98;;
58470;SDS011;44258;51.288;12.068;2022-10-03T10:05:21;6.68;;;1.83;;
58470;SDS011;44258;51.288;12.068;2022-10-03T10:08:21;5.28;;;1.88;;
58470;SDS011;44258;51.288;12.068;2022-10-03T10:11:16;5.20;;;1.77;;
58470;SDS011;44258;51.288;12.068;2022-10-03T10:14:01;6.25;;;1.60;;
58470;SDS011;44258;51.288;12.068;2022-10-03T10:17:11;6.45;;;1.77;;
58470;SDS011;44258;51.288;12.068;2022-10-03T10:20:19;6.30;;;1.50;;
58470;SDS011;44258;51.288;12.068;2022-10-03T10:23:07;7.30;;;1.33;;
58470;SDS011;44258;51.288;12.068;2022-10-03T10:26:20;7.03;;;1.95;;
58470;SDS011;44258;51.288;12.068;2022-10-03T10:29:30;5.85;;;1.70;;
58470;SDS011;44258;51.288;12.068;2022-10-03T10:45:04;10.10;;;2.03;;
58470;SDS011;44258;51.288;12.068;2022-10-03T10:54:23;3.75;;;1.30;;
58470;SDS011;44258;51.288;12.068;2022-10-03T10:57:24;6.50;;;1.63;;
58470;SDS011;44258;51.288;12.068;2022-10-03T11:00:12;4.15;;;1.10;;
58470;SDS011;44258;51.288;12.068;2022-10-03T11:03:07;7.13;;;1.65;;
